AEA2FC LEGE-LEMG
Flight info
| Callsign | AEA2FC |
|---|---|
| Flight time | N/A |
| Altitude | 23000 |
| Route | MAMUK N31 BCN/N0463F310 M985 VIBAS |
| Aircraft | B738/M-SDE2E3FGHIRWXY/LB1 |
Departure
| Time | 2026-04-23 21:26 |
|---|---|
| Airport | Girona-Costa Brava Airport (LEGE) |
Arrival
| Time | N/A |
|---|---|
| Airport | Málaga-Costa del Sol Airport (LEMG) |
| Time | Latitude | Longitude | Altitude | Speed | Heading |
|---|---|---|---|---|---|
| 2026-04-23 21:08 | 41.89893 | 2.76489 | 473 ft | 0 kts | 106° |
| 2026-04-23 21:14 | 41.89894 | 2.76484 | 473 ft | 2 kts | 104° |
| 2026-04-23 21:15 | 41.89898 | 2.76464 | 473 ft | 2 kts | 92° |
| 2026-04-23 21:15 | 41.89896 | 2.76444 | 473 ft | 2 kts | 75° |
| 2026-04-23 21:15 | 41.89890 | 2.76425 | 473 ft | 2 kts | 53° |
| 2026-04-23 21:15 | 41.89880 | 2.76411 | 473 ft | 2 kts | 34° |
| 2026-04-23 21:16 | 41.89866 | 2.76402 | 473 ft | 2 kts | 13° |
| 2026-04-23 21:16 | 41.89851 | 2.76398 | 473 ft | 1 kts | 17° |
| 2026-04-23 21:16 | 41.89849 | 2.76397 | 473 ft | 0 kts | 17° |
| 2026-04-23 21:20 | 41.89874 | 2.76392 | 473 ft | 5 kts | 315° |
| 2026-04-23 21:20 | 41.89892 | 2.76320 | 473 ft | 10 kts | 286° |
| 2026-04-23 21:20 | 41.89918 | 2.76233 | 473 ft | 9 kts | 327° |
| 2026-04-23 21:20 | 41.90000 | 2.76248 | 473 ft | 13 kts | 15° |
| 2026-04-23 21:21 | 41.90089 | 2.76281 | 473 ft | 12 kts | 15° |
| 2026-04-23 21:21 | 41.90173 | 2.76314 | 473 ft | 13 kts | 16° |
| 2026-04-23 21:21 | 41.90281 | 2.76355 | 473 ft | 19 kts | 16° |
| 2026-04-23 21:21 | 41.90425 | 2.76409 | 473 ft | 22 kts | 16° |
| 2026-04-23 21:22 | 41.90572 | 2.76465 | 473 ft | 21 kts | 16° |
| 2026-04-23 21:22 | 41.90712 | 2.76518 | 473 ft | 20 kts | 16° |
| 2026-04-23 21:22 | 41.90845 | 2.76568 | 473 ft | 19 kts | 17° |
| 2026-04-23 21:22 | 41.90971 | 2.76616 | 473 ft | 18 kts | 15° |
| 2026-04-23 21:23 | 41.91093 | 2.76662 | 473 ft | 18 kts | 17° |
| 2026-04-23 21:23 | 41.91227 | 2.76713 | 473 ft | 20 kts | 16° |
| 2026-04-23 21:23 | 41.91349 | 2.76759 | 473 ft | 12 kts | 16° |
| 2026-04-23 21:23 | 41.91414 | 2.76753 | 473 ft | 10 kts | 332° |
| 2026-04-23 21:24 | 41.91500 | 2.76689 | 473 ft | 15 kts | 331° |
| 2026-04-23 21:24 | 41.91536 | 2.76611 | 473 ft | 5 kts | 261° |
| 2026-04-23 21:24 | 41.91519 | 2.76594 | 473 ft | 0 kts | 199° |
| 2026-04-23 21:25 | 41.91508 | 2.76589 | 473 ft | 7 kts | 199° |
| 2026-04-23 21:25 | 41.91243 | 2.76489 | 473 ft | 74 kts | 195° |
| 2026-04-23 21:25 | 41.90531 | 2.76219 | 473 ft | 134 kts | 196° |
| 2026-04-23 21:25 | 41.89487 | 2.75827 | 601 ft | 169 kts | 197° |
| 2026-04-23 21:26 | 41.88380 | 2.75313 | 1214 ft | 172 kts | 201° |
| 2026-04-23 21:26 | 41.87247 | 2.74713 | 1847 ft | 177 kts | 200° |
| 2026-04-23 21:26 | 41.86103 | 2.74135 | 2413 ft | 178 kts | 198° |
| 2026-04-23 21:26 | 41.84925 | 2.73570 | 2931 ft | 180 kts | 198° |
| 2026-04-23 21:27 | 41.83741 | 2.72992 | 3449 ft | 182 kts | 198° |
| 2026-04-23 21:27 | 41.82542 | 2.72400 | 3892 ft | 189 kts | 197° |
| 2026-04-23 21:27 | 41.81258 | 2.71795 | 4190 ft | 203 kts | 197° |
| 2026-04-23 21:27 | 41.79865 | 2.71134 | 4453 ft | 222 kts | 197° |
| 2026-04-23 21:28 | 41.78370 | 2.70424 | 4843 ft | 235 kts | 198° |
| 2026-04-23 21:28 | 41.76805 | 2.69675 | 5420 ft | 242 kts | 198° |
| 2026-04-23 21:28 | 41.75148 | 2.68886 | 5783 ft | 258 kts | 198° |
| 2026-04-23 21:28 | 41.73422 | 2.68055 | 6200 ft | 271 kts | 198° |
| 2026-04-23 21:29 | 41.71641 | 2.67191 | 6790 ft | 277 kts | 199° |
| 2026-04-23 21:29 | 41.69823 | 2.66228 | 7378 ft | 282 kts | 205° |
| 2026-04-23 21:29 | 41.68190 | 2.64756 | 7976 ft | 287 kts | 226° |
| 2026-04-23 21:29 | 41.67046 | 2.62600 | 8593 ft | 289 kts | 246° |
| 2026-04-23 21:30 | 41.66463 | 2.60027 | 9253 ft | 289 kts | 263° |
| 2026-04-23 21:30 | 41.66388 | 2.57404 | 9877 ft | 288 kts | 278° |
| 2026-04-23 21:30 | 41.66926 | 2.54819 | 10519 ft | 287 kts | 295° |
| 2026-04-23 21:30 | 41.67785 | 2.52386 | 10801 ft | 302 kts | 298° |
| 2026-04-23 21:31 | 41.68759 | 2.49789 | 11134 ft | 315 kts | 298° |
| 2026-04-23 21:31 | 41.69746 | 2.47114 | 11496 ft | 327 kts | 297° |
| 2026-04-23 21:31 | 41.70728 | 2.44382 | 12098 ft | 331 kts | 297° |
| 2026-04-23 21:31 | 41.71715 | 2.41586 | 12724 ft | 334 kts | 296° |
| 2026-04-23 21:32 | 41.72698 | 2.38779 | 13402 ft | 336 kts | 296° |
| 2026-04-23 21:32 | 41.73687 | 2.35943 | 14073 ft | 338 kts | 296° |
| 2026-04-23 21:32 | 41.74560 | 2.33012 | 14714 ft | 342 kts | 284° |
| 2026-04-23 21:32 | 41.74622 | 2.29815 | 15401 ft | 348 kts | 261° |
| 2026-04-23 21:33 | 41.73727 | 2.26776 | 15989 ft | 358 kts | 240° |
| 2026-04-23 21:33 | 41.72043 | 2.24295 | 16590 ft | 366 kts | 220° |
| 2026-04-23 21:33 | 41.69868 | 2.22493 | 17198 ft | 372 kts | 210° |
| 2026-04-23 21:33 | 41.67559 | 2.20940 | 17738 ft | 376 kts | 208° |
| 2026-04-23 21:34 | 41.65163 | 2.19394 | 18329 ft | 379 kts | 209° |
| 2026-04-23 21:34 | 41.62833 | 2.17728 | 18875 ft | 381 kts | 213° |
| 2026-04-23 21:34 | 41.60539 | 2.15919 | 19459 ft | 383 kts | 214° |
| 2026-04-23 21:34 | 41.58274 | 2.14089 | 20015 ft | 386 kts | 214° |
| 2026-04-23 21:35 | 41.55965 | 2.12231 | 20541 ft | 389 kts | 214° |
| 2026-04-23 21:35 | 41.53615 | 2.10361 | 21075 ft | 392 kts | 214° |
| 2026-04-23 21:35 | 41.51246 | 2.08494 | 21584 ft | 396 kts | 214° |
| 2026-04-23 21:35 | 41.48881 | 2.06643 | 22106 ft | 398 kts | 213° |
| 2026-04-23 21:36 | 41.44045 | 2.02886 | 23101 ft | 404 kts | 213° |
| 2026-04-23 21:36 | 41.41619 | 2.01010 | 23579 ft | 406 kts | 213° |
| 2026-04-23 21:36 | 41.39150 | 1.99105 | 24048 ft | 409 kts | 213° |
| 2026-04-23 21:37 | 41.36678 | 1.97199 | 24519 ft | 411 kts | 213° |
| 2026-04-23 21:37 | 41.34176 | 1.95271 | 24960 ft | 414 kts | 213° |
| 2026-04-23 21:37 | 41.31681 | 1.93352 | 25408 ft | 416 kts | 213° |
| 2026-04-23 21:37 | 41.29158 | 1.91413 | 25845 ft | 419 kts | 213° |
| 2026-04-23 21:38 | 41.26626 | 1.89470 | 26220 ft | 422 kts | 213° |
| 2026-04-23 21:38 | 41.24064 | 1.87505 | 26624 ft | 425 kts | 213° |
| 2026-04-23 21:38 | 41.21511 | 1.85550 | 27028 ft | 427 kts | 213° |
| 2026-04-23 21:38 | 41.18905 | 1.83555 | 27387 ft | 430 kts | 213° |
| 2026-04-23 21:39 | 41.16331 | 1.81588 | 27783 ft | 432 kts | 213° |
| 2026-04-23 21:39 | 41.13712 | 1.79588 | 28125 ft | 435 kts | 213° |
| 2026-04-23 21:39 | 41.11100 | 1.77593 | 28533 ft | 436 kts | 213° |
| 2026-04-23 21:39 | 41.08464 | 1.75519 | 28870 ft | 437 kts | 216° |
| 2026-04-23 21:40 | 41.05973 | 1.73253 | 29233 ft | 437 kts | 221° |
| 2026-04-23 21:40 | 41.03656 | 1.70679 | 29552 ft | 437 kts | 226° |
| 2026-04-23 21:40 | 41.01479 | 1.67866 | 29897 ft | 437 kts | 229° |
| 2026-04-23 21:40 | 40.99386 | 1.64925 | 30268 ft | 438 kts | 230° |
| 2026-04-23 21:41 | 40.97330 | 1.61920 | 30579 ft | 440 kts | 231° |
| 2026-04-23 21:41 | 40.95303 | 1.58910 | 30905 ft | 441 kts | 231° |
| 2026-04-23 21:41 | 40.93317 | 1.55954 | 31270 ft | 442 kts | 231° |
| 2026-04-23 21:41 | 40.91287 | 1.52941 | 31541 ft | 445 kts | 231° |
| 2026-04-23 21:42 | 40.89208 | 1.49869 | 31884 ft | 446 kts | 231° |
| 2026-04-23 21:42 | 40.87187 | 1.46896 | 32159 ft | 448 kts | 231° |
| 2026-04-23 21:42 | 40.85061 | 1.43783 | 32450 ft | 450 kts | 231° |
| 2026-04-23 21:42 | 40.82952 | 1.40708 | 32726 ft | 451 kts | 231° |
| 2026-04-23 21:43 | 40.80860 | 1.37666 | 33001 ft | 450 kts | 231° |
| 2026-04-23 21:43 | 40.78754 | 1.34612 | 33143 ft | 450 kts | 230° |
| 2026-04-23 21:43 | 40.76629 | 1.31535 | 33147 ft | 449 kts | 230° |
| 2026-04-23 21:44 | 40.72458 | 1.25509 | 33140 ft | 446 kts | 230° |
| 2026-04-23 21:44 | 40.68253 | 1.19445 | 33134 ft | 446 kts | 230° |
| 2026-04-23 21:45 | 40.64138 | 1.13513 | 33134 ft | 447 kts | 230° |
| 2026-04-23 21:45 | 40.59951 | 1.07490 | 33134 ft | 446 kts | 230° |
| 2026-04-23 21:46 | 40.55779 | 1.01501 | 33131 ft | 446 kts | 229° |
| 2026-04-23 21:46 | 40.51557 | 0.95457 | 33134 ft | 446 kts | 229° |
| 2026-04-23 21:47 | 40.47356 | 0.89458 | 33127 ft | 445 kts | 229° |
| 2026-04-23 21:47 | 40.43161 | 0.83482 | 33127 ft | 444 kts | 229° |
| 2026-04-23 21:48 | 40.38988 | 0.77547 | 33121 ft | 444 kts | 229° |
| 2026-04-23 21:48 | 40.34786 | 0.71586 | 33120 ft | 445 kts | 229° |
| 2026-04-23 21:49 | 40.30592 | 0.65644 | 33119 ft | 445 kts | 229° |
| 2026-04-23 21:49 | 40.26416 | 0.59736 | 33116 ft | 444 kts | 229° |
| 2026-04-23 21:50 | 40.22172 | 0.53750 | 33111 ft | 445 kts | 229° |
| 2026-04-23 21:50 | 40.17997 | 0.47876 | 33111 ft | 443 kts | 229° |
| 2026-04-23 21:51 | 40.13766 | 0.41936 | 33114 ft | 443 kts | 228° |
| 2026-04-23 21:51 | 40.09566 | 0.36046 | 33111 ft | 443 kts | 228° |
| 2026-04-23 21:52 | 40.05401 | 0.30216 | 33114 ft | 443 kts | 227° |
| 2026-04-23 21:52 | 40.01172 | 0.24309 | 33116 ft | 444 kts | 227° |
| 2026-04-23 21:53 | 39.96061 | 0.17184 | 33127 ft | 444 kts | 227° |
| 2026-04-23 21:53 | 39.88267 | 0.06338 | 33125 ft | 443 kts | 227° |
| 2026-04-23 21:54 | 39.80352 | -0.04634 | 33130 ft | 444 kts | 227° |
| 2026-04-23 21:54 | 39.72584 | -0.15438 | 33128 ft | 442 kts | 227° |
| 2026-04-23 21:55 | 39.64826 | -0.26067 | 33131 ft | 441 kts | 227° |
| 2026-04-23 21:55 | 39.56893 | -0.36898 | 33131 ft | 441 kts | 227° |
| 2026-04-23 21:56 | 39.49054 | -0.47596 | 33131 ft | 441 kts | 227° |
| 2026-04-23 21:56 | 39.41666 | -0.59050 | 33129 ft | 441 kts | 233° |
| 2026-04-23 21:57 | 39.34963 | -0.71025 | 33130 ft | 439 kts | 234° |
| 2026-04-23 21:57 | 39.28202 | -0.82936 | 33131 ft | 439 kts | 233° |
| 2026-04-23 21:58 | 39.21310 | -0.94677 | 33125 ft | 439 kts | 232° |
| 2026-04-23 21:58 | 39.14395 | -1.06275 | 33121 ft | 439 kts | 232° |
| 2026-04-23 21:59 | 39.07384 | -1.17996 | 33115 ft | 439 kts | 232° |
| 2026-04-23 21:59 | 38.99594 | -1.31003 | 33109 ft | 440 kts | 232° |
| 2026-04-23 22:00 | 38.87760 | -1.50696 | 33115 ft | 440 kts | 232° |
| 2026-04-23 22:00 | 38.79857 | -1.63775 | 33121 ft | 440 kts | 232° |
| 2026-04-23 22:01 | 38.71995 | -1.76731 | 33121 ft | 438 kts | 231° |
| 2026-04-23 22:01 | 38.64199 | -1.89530 | 33103 ft | 438 kts | 231° |
| 2026-04-23 22:02 | 38.56315 | -2.02403 | 33115 ft | 437 kts | 231° |
| 2026-04-23 22:02 | 38.50377 | -2.12064 | 33117 ft | 438 kts | 231° |